KATL/ATL METAR and TAF weather

Enter ICAO airport designator
Station Type Date Time Source
KATL METAR 2019/05/26 22:52 UTC NOAA

KATL 262252Z 29009KT 10SM FEW070 SCT250 33/15 A3010 RMK AO2 SLP180 T03330150


Station Type Date Time Source
KATL Decoded METAR 2019/05/26 22:52 UTC NOAA

HARTSFIELD-JACKSON ATLANTA, GA, United States (KATL) 33-39N 84-26W
May 26, 2019 - 06:52 PM EDT / 2019.05.26 2252 UTC
Wind: from the WNW (290 degrees) at 10 MPH (9 KT):0
Visibility: 10 mile(s):0
Sky conditions: partly cloudy
Temperature: 91.9 F (33.3 C)
Dew Point: 59.0 F (15.0 C)
Relative Humidity: 33%
Pressure (altimeter): 30.1 in. Hg (1019 hPa)
ob: KATL 262252Z 29009KT 10SM FEW070 SCT250 33/15 A3010 RMK AO2 SLP180 T03330150
cycle: 23

Station Type Date Time Source
KATL TAF 2019/05/26 22:33 UTC NOAA

TAF
AMD KATL 262130Z 2622/2724 28010KT P6SM FEW070
FM270100 28005KT P6SM SKC
FM271500 30009KT P6SM FEW050 SCT250
FM271900 28009KT P6SM SCT070 SCT250

Example: see airport list